Terminal Aerodrome Forecast
Issued by NWS

Home | Current Version | Previous Version | Text Only | Print | Product List | Glossary On
Versions: 1 2 3 4 5 6 7 8 9 10 11 12 13 14 15 16 17 18 19 20 21 22 23 24
000
FTUS45 KGJT 211730
TAFEGE
TAF
KEGE 211730Z 2118/2218 20006KT P6SM VCSH OVC080
     FM212000 23007KT P6SM VCTS SCT060CB BKN120
     FM220100 09006KT P6SM VCTS SCT050CB BKN100
     FM220600 20005KT P6SM VCSH SCT050 BKN100
     FM221200 00000KT P6SM BKN150=

USA.gov is the U.S. government's official web portal to all federal, state and local government web resources and services.